sensor_id;sensor_type;location;lat;lon;timestamp;P1;durP1;ratioP1;P2;durP2;ratioP2
20653;SDS011;21083;50.898;4.902;2022-08-18T00:02:11;36.35;;;26.23;;
20653;SDS011;21083;50.898;4.902;2022-08-18T00:04:41;37.08;;;26.27;;
20653;SDS011;21083;50.898;4.902;2022-08-18T00:07:10;35.75;;;25.83;;
20653;SDS011;21083;50.898;4.902;2022-08-18T00:09:39;35.63;;;23.63;;
20653;SDS011;21083;50.898;4.902;2022-08-18T00:12:08;34.47;;;24.17;;
20653;SDS011;21083;50.898;4.902;2022-08-18T00:14:38;36.85;;;25.33;;
20653;SDS011;21083;50.898;4.902;2022-08-18T00:17:05;41.72;;;27.35;;
20653;SDS011;21083;50.898;4.902;2022-08-18T00:19:34;42.70;;;28.13;;
20653;SDS011;21083;50.898;4.902;2022-08-18T00:22:00;42.58;;;29.88;;
20653;SDS011;21083;50.898;4.902;2022-08-18T00:24:27;40.85;;;28.25;;
20653;SDS011;21083;50.898;4.902;2022-08-18T00:26:55;47.20;;;30.23;;
20653;SDS011;21083;50.898;4.902;2022-08-18T00:29:22;49.45;;;32.95;;
20653;SDS011;21083;50.898;4.902;2022-08-18T00:31:49;47.15;;;31.15;;
20653;SDS011;21083;50.898;4.902;2022-08-18T00:34:16;48.22;;;34.05;;
20653;SDS011;21083;50.898;4.902;2022-08-18T00:36:44;52.53;;;36.13;;
20653;SDS011;21083;50.898;4.902;2022-08-18T00:39:11;54.60;;;36.13;;
20653;SDS011;21083;50.898;4.902;2022-08-18T00:41:38;53.63;;;36.45;;
20653;SDS011;21083;50.898;4.902;2022-08-18T00:44:05;58.53;;;37.88;;
20653;SDS011;21083;50.898;4.902;2022-08-18T00:46:33;56.25;;;37.30;;
20653;SDS011;21083;50.898;4.902;2022-08-18T00:49:02;55.42;;;35.90;;
20653;SDS011;21083;50.898;4.902;2022-08-18T00:51:32;51.65;;;35.47;;
20653;SDS011;21083;50.898;4.902;2022-08-18T00:54:13;58.45;;;38.70;;
20653;SDS011;21083;50.898;4.902;2022-08-18T00:56:43;54.63;;;36.17;;
20653;SDS011;21083;50.898;4.902;2022-08-18T00:59:14;71.35;;;42.45;;
20653;SDS011;21083;50.898;4.902;2022-08-18T01:01:45;65.63;;;38.97;;
20653;SDS011;21083;50.898;4.902;2022-08-18T01:04:15;69.55;;;41.33;;
20653;SDS011;21083;50.898;4.902;2022-08-18T01:06:46;70.72;;;43.05;;
20653;SDS011;21083;50.898;4.902;2022-08-18T01:09:18;69.53;;;42.30;;
20653;SDS011;21083;50.898;4.902;2022-08-18T01:11:45;68.85;;;42.85;;
20653;SDS011;21083;50.898;4.902;2022-08-18T01:14:12;77.15;;;45.92;;
20653;SDS011;21083;50.898;4.902;2022-08-18T01:16:42;72.43;;;43.67;;
20653;SDS011;21083;50.898;4.902;2022-08-18T01:19:27;81.43;;;46.75;;
20653;SDS011;21083;50.898;4.902;2022-08-18T01:22:14;82.28;;;44.65;;
20653;SDS011;21083;50.898;4.902;2022-08-18T01:24:48;82.57;;;47.47;;
20653;SDS011;21083;50.898;4.902;2022-08-18T01:27:34;80.57;;;47.60;;
20653;SDS011;21083;50.898;4.902;2022-08-18T01:30:03;92.63;;;50.78;;
20653;SDS011;21083;50.898;4.902;2022-08-18T01:32:34;91.30;;;50.95;;
20653;SDS011;21083;50.898;4.902;2022-08-18T01:35:03;101.95;;;50.78;;
20653;SDS011;21083;50.898;4.902;2022-08-18T01:37:33;90.15;;;50.67;;
20653;SDS011;21083;50.898;4.902;2022-08-18T01:40:03;73.97;;;41.40;;
20653;SDS011;21083;50.898;4.902;2022-08-18T01:42:32;81.32;;;44.45;;
20653;SDS011;21083;50.898;4.902;2022-08-18T01:44:59;85.47;;;48.28;;
20653;SDS011;21083;50.898;4.902;2022-08-18T01:47:28;88.78;;;49.05;;
20653;SDS011;21083;50.898;4.902;2022-08-18T01:49:55;93.93;;;50.85;;
20653;SDS011;21083;50.898;4.902;2022-08-18T01:52:22;90.90;;;48.03;;
20653;SDS011;21083;50.898;4.902;2022-08-18T01:54:50;94.97;;;49.28;;
20653;SDS011;21083;50.898;4.902;2022-08-18T01:57:19;86.18;;;48.03;;
20653;SDS011;21083;50.898;4.902;2022-08-18T01:59:46;85.93;;;47.53;;
20653;SDS011;21083;50.898;4.902;2022-08-18T02:02:19;86.03;;;46.83;;
20653;SDS011;21083;50.898;4.902;2022-08-18T02:04:49;78.20;;;45.75;;
20653;SDS011;21083;50.898;4.902;2022-08-18T02:07:19;85.97;;;47.45;;
20653;SDS011;21083;50.898;4.902;2022-08-18T02:09:46;93.22;;;49.33;;
20653;SDS011;21083;50.898;4.902;2022-08-18T02:12:13;84.13;;;48.65;;
20653;SDS011;21083;50.898;4.902;2022-08-18T02:14:42;94.50;;;50.55;;
20653;SDS011;21083;50.898;4.902;2022-08-18T02:17:10;85.28;;;47.42;;
20653;SDS011;21083;50.898;4.902;2022-08-18T02:19:39;95.85;;;51.28;;
20653;SDS011;21083;50.898;4.902;2022-08-18T02:22:12;83.07;;;49.45;;
20653;SDS011;21083;50.898;4.902;2022-08-18T02:24:41;85.55;;;46.88;;
20653;SDS011;21083;50.898;4.902;2022-08-18T02:27:09;84.10;;;47.88;;
20653;SDS011;21083;50.898;4.902;2022-08-18T02:29:38;81.78;;;48.80;;
20653;SDS011;21083;50.898;4.902;2022-08-18T02:32:07;83.78;;;48.35;;
20653;SDS011;21083;50.898;4.902;2022-08-18T02:34:34;91.45;;;48.90;;
20653;SDS011;21083;50.898;4.902;2022-08-18T02:37:01;81.93;;;44.78;;
20653;SDS011;21083;50.898;4.902;2022-08-18T02:39:28;84.45;;;48.22;;
20653;SDS011;21083;50.898;4.902;2022-08-18T02:41:55;84.15;;;47.55;;
20653;SDS011;21083;50.898;4.902;2022-08-18T02:44:22;83.38;;;48.50;;
20653;SDS011;21083;50.898;4.902;2022-08-18T02:46:50;83.53;;;48.15;;
20653;SDS011;21083;50.898;4.902;2022-08-18T02:49:19;77.93;;;44.60;;
20653;SDS011;21083;50.898;4.902;2022-08-18T02:51:46;79.13;;;44.97;;
20653;SDS011;21083;50.898;4.902;2022-08-18T02:54:15;86.88;;;46.50;;
20653;SDS011;21083;50.898;4.902;2022-08-18T02:56:43;77.70;;;46.10;;
20653;SDS011;21083;50.898;4.902;2022-08-18T02:59:12;69.43;;;42.50;;
20653;SDS011;21083;50.898;4.902;2022-08-18T03:01:41;67.57;;;42.47;;
20653;SDS011;21083;50.898;4.902;2022-08-18T03:04:10;69.50;;;40.58;;
20653;SDS011;21083;50.898;4.902;2022-08-18T03:06:40;70.40;;;42.65;;
20653;SDS011;21083;50.898;4.902;2022-08-18T03:09:09;90.05;;;47.78;;
20653;SDS011;21083;50.898;4.902;2022-08-18T03:11:36;81.10;;;44.83;;
20653;SDS011;21083;50.898;4.902;2022-08-18T03:14:04;83.45;;;48.78;;
20653;SDS011;21083;50.898;4.902;2022-08-18T03:16:31;79.93;;;46.47;;
20653;SDS011;21083;50.898;4.902;2022-08-18T03:18:58;69.45;;;40.97;;
20653;SDS011;21083;50.898;4.902;2022-08-18T03:21:27;89.38;;;47.22;;
20653;SDS011;21083;50.898;4.902;2022-08-18T03:23:57;78.93;;;45.33;;
20653;SDS011;21083;50.898;4.902;2022-08-18T03:26:24;81.00;;;45.25;;
20653;SDS011;21083;50.898;4.902;2022-08-18T03:28:52;76.72;;;44.10;;
20653;SDS011;21083;50.898;4.902;2022-08-18T03:31:21;73.05;;;44.88;;
20653;SDS011;21083;50.898;4.902;2022-08-18T03:33:50;79.65;;;45.60;;
20653;SDS011;21083;50.898;4.902;2022-08-18T03:36:19;79.35;;;47.42;;
20653;SDS011;21083;50.898;4.902;2022-08-18T03:38:48;78.32;;;47.50;;
20653;SDS011;21083;50.898;4.902;2022-08-18T03:41:18;57.65;;;35.97;;
20653;SDS011;21083;50.898;4.902;2022-08-18T03:43:47;73.13;;;43.63;;
20653;SDS011;21083;50.898;4.902;2022-08-18T03:46:15;72.95;;;42.50;;
20653;SDS011;21083;50.898;4.902;2022-08-18T03:48:43;65.72;;;40.03;;
20653;SDS011;21083;50.898;4.902;2022-08-18T03:51:13;79.13;;;45.22;;
20653;SDS011;21083;50.898;4.902;2022-08-18T03:53:42;76.00;;;43.03;;
20653;SDS011;21083;50.898;4.902;2022-08-18T03:56:10;72.50;;;42.42;;
20653;SDS011;21083;50.898;4.902;2022-08-18T03:58:42;65.18;;;39.17;;
20653;SDS011;21083;50.898;4.902;2022-08-18T04:01:09;59.08;;;34.83;;
20653;SDS011;21083;50.898;4.902;2022-08-18T04:03:37;54.72;;;34.80;;
20653;SDS011;21083;50.898;4.902;2022-08-18T04:06:03;49.97;;;30.98;;
20653;SDS011;21083;50.898;4.902;2022-08-18T04:08:31;61.50;;;36.33;;
20653;SDS011;21083;50.898;4.902;2022-08-18T04:10:58;67.55;;;35.42;;
20653;SDS011;21083;50.898;4.902;2022-08-18T04:13:24;58.28;;;35.28;;
20653;SDS011;21083;50.898;4.902;2022-08-18T04:15:53;58.22;;;34.80;;
20653;SDS011;21083;50.898;4.902;2022-08-18T04:18:20;53.83;;;32.03;;
20653;SDS011;21083;50.898;4.902;2022-08-18T04:20:46;56.42;;;34.50;;
20653;SDS011;21083;50.898;4.902;2022-08-18T04:23:13;76.32;;;43.70;;
20653;SDS011;21083;50.898;4.902;2022-08-18T04:25:41;73.50;;;44.00;;
20653;SDS011;21083;50.898;4.902;2022-08-18T04:28:08;76.72;;;42.70;;
20653;SDS011;21083;50.898;4.902;2022-08-18T04:30:35;69.57;;;40.78;;
20653;SDS011;21083;50.898;4.902;2022-08-18T04:33:03;73.65;;;44.00;;
20653;SDS011;21083;50.898;4.902;2022-08-18T04:35:30;72.82;;;41.80;;
20653;SDS011;21083;50.898;4.902;2022-08-18T04:37:57;73.03;;;41.35;;
20653;SDS011;21083;50.898;4.902;2022-08-18T04:40:24;67.93;;;41.10;;
20653;SDS011;21083;50.898;4.902;2022-08-18T04:42:51;69.43;;;40.55;;
20653;SDS011;21083;50.898;4.902;2022-08-18T04:45:18;68.20;;;39.88;;
20653;SDS011;21083;50.898;4.902;2022-08-18T04:47:46;68.25;;;40.70;;
20653;SDS011;21083;50.898;4.902;2022-08-18T04:50:15;72.55;;;40.85;;
20653;SDS011;21083;50.898;4.902;2022-08-18T04:52:42;72.88;;;40.40;;
20653;SDS011;21083;50.898;4.902;2022-08-18T04:55:26;69.10;;;39.00;;
20653;SDS011;21083;50.898;4.902;2022-08-18T04:57:53;79.78;;;37.45;;
20653;SDS011;21083;50.898;4.902;2022-08-18T05:00:22;66.15;;;39.92;;
20653;SDS011;21083;50.898;4.902;2022-08-18T05:02:49;63.22;;;37.05;;
20653;SDS011;21083;50.898;4.902;2022-08-18T05:05:19;77.32;;;41.78;;
20653;SDS011;21083;50.898;4.902;2022-08-18T05:07:47;82.85;;;41.22;;
20653;SDS011;21083;50.898;4.902;2022-08-18T05:10:14;75.55;;;40.78;;
20653;SDS011;21083;50.898;4.902;2022-08-18T05:12:44;72.95;;;40.53;;
20653;SDS011;21083;50.898;4.902;2022-08-18T05:15:12;77.53;;;42.05;;
20653;SDS011;21083;50.898;4.902;2022-08-18T05:17:39;72.68;;;40.58;;
20653;SDS011;21083;50.898;4.902;2022-08-18T05:20:06;68.13;;;39.42;;
20653;SDS011;21083;50.898;4.902;2022-08-18T05:22:38;71.10;;;39.25;;
20653;SDS011;21083;50.898;4.902;2022-08-18T05:25:07;69.03;;;38.95;;
20653;SDS011;21083;50.898;4.902;2022-08-18T05:27:37;69.65;;;39.53;;
20653;SDS011;21083;50.898;4.902;2022-08-18T05:30:07;69.60;;;37.50;;
20653;SDS011;21083;50.898;4.902;2022-08-18T05:32:38;58.42;;;33.53;;
20653;SDS011;21083;50.898;4.902;2022-08-18T05:35:06;65.32;;;34.90;;
20653;SDS011;21083;50.898;4.902;2022-08-18T05:37:39;59.92;;;35.00;;
20653;SDS011;21083;50.898;4.902;2022-08-18T05:40:15;61.05;;;36.08;;
20653;SDS011;21083;50.898;4.902;2022-08-18T05:42:43;53.28;;;32.70;;
20653;SDS011;21083;50.898;4.902;2022-08-18T05:45:15;58.67;;;34.70;;
20653;SDS011;21083;50.898;4.902;2022-08-18T05:47:43;59.20;;;36.20;;
20653;SDS011;21083;50.898;4.902;2022-08-18T05:50:11;62.80;;;35.28;;
20653;SDS011;21083;50.898;4.902;2022-08-18T05:52:43;60.67;;;34.95;;
20653;SDS011;21083;50.898;4.902;2022-08-18T05:55:23;60.28;;;35.17;;
20653;SDS011;21083;50.898;4.902;2022-08-18T05:58:13;61.83;;;34.53;;
20653;SDS011;21083;50.898;4.902;2022-08-18T06:00:46;58.42;;;33.17;;
20653;SDS011;21083;50.898;4.902;2022-08-18T06:03:18;57.00;;;34.00;;
20653;SDS011;21083;50.898;4.902;2022-08-18T06:05:51;57.70;;;33.35;;
20653;SDS011;21083;50.898;4.902;2022-08-18T06:08:23;52.90;;;32.05;;
20653;SDS011;21083;50.898;4.902;2022-08-18T06:10:54;51.28;;;31.50;;
20653;SDS011;21083;50.898;4.902;2022-08-18T06:13:21;56.13;;;32.92;;
20653;SDS011;21083;50.898;4.902;2022-08-18T06:15:49;57.75;;;33.03;;
20653;SDS011;21083;50.898;4.902;2022-08-18T06:18:32;53.60;;;31.38;;
20653;SDS011;21083;50.898;4.902;2022-08-18T06:24:06;52.40;;;32.58;;
20653;SDS011;21083;50.898;4.902;2022-08-18T06:26:44;57.72;;;33.20;;
20653;SDS011;21083;50.898;4.902;2022-08-18T06:29:27;52.47;;;31.48;;
20653;SDS011;21083;50.898;4.902;2022-08-18T06:32:06;58.20;;;33.10;;
20653;SDS011;21083;50.898;4.902;2022-08-18T06:34:41;59.92;;;33.58;;
20653;SDS011;21083;50.898;4.902;2022-08-18T06:37:19;59.80;;;34.67;;
20653;SDS011;21083;50.898;4.902;2022-08-18T06:39:56;57.25;;;33.25;;
20653;SDS011;21083;50.898;4.902;2022-08-18T06:42:25;58.08;;;34.30;;
20653;SDS011;21083;50.898;4.902;2022-08-18T06:44:56;52.90;;;33.83;;
20653;SDS011;21083;50.898;4.902;2022-08-18T06:47:28;59.92;;;34.42;;
20653;SDS011;21083;50.898;4.902;2022-08-18T06:50:05;59.58;;;34.22;;
20653;SDS011;21083;50.898;4.902;2022-08-18T06:52:37;62.85;;;33.22;;
20653;SDS011;21083;50.898;4.902;2022-08-18T06:55:17;56.35;;;34.25;;
20653;SDS011;21083;50.898;4.902;2022-08-18T06:57:57;55.60;;;31.98;;
20653;SDS011;21083;50.898;4.902;2022-08-18T07:00:30;56.97;;;34.17;;
20653;SDS011;21083;50.898;4.902;2022-08-18T07:02:59;63.05;;;35.17;;
20653;SDS011;21083;50.898;4.902;2022-08-18T07:05:32;53.35;;;32.67;;
20653;SDS011;21083;50.898;4.902;2022-08-18T07:08:14;55.28;;;32.38;;
20653;SDS011;21083;50.898;4.902;2022-08-18T07:10:45;48.30;;;29.08;;
20653;SDS011;21083;50.898;4.902;2022-08-18T07:13:17;47.25;;;29.52;;
20653;SDS011;21083;50.898;4.902;2022-08-18T07:15:46;45.53;;;28.38;;
20653;SDS011;21083;50.898;4.902;2022-08-18T07:18:14;49.72;;;31.35;;
20653;SDS011;21083;50.898;4.902;2022-08-18T07:20:48;45.58;;;30.20;;
20653;SDS011;21083;50.898;4.902;2022-08-18T07:23:23;51.80;;;30.27;;
20653;SDS011;21083;50.898;4.902;2022-08-18T07:25:59;50.10;;;29.00;;
20653;SDS011;21083;50.898;4.902;2022-08-18T07:28:31;39.65;;;26.15;;
20653;SDS011;21083;50.898;4.902;2022-08-18T07:34:01;41.42;;;26.17;;
20653;SDS011;21083;50.898;4.902;2022-08-18T07:36:31;37.90;;;23.30;;
20653;SDS011;21083;50.898;4.902;2022-08-18T07:39:06;37.92;;;22.85;;
20653;SDS011;21083;50.898;4.902;2022-08-18T07:41:42;38.33;;;24.17;;
20653;SDS011;21083;50.898;4.902;2022-08-18T07:44:16;36.67;;;22.45;;
20653;SDS011;21083;50.898;4.902;2022-08-18T07:46:52;39.42;;;24.63;;
20653;SDS011;21083;50.898;4.902;2022-08-18T07:49:25;38.70;;;24.10;;
20653;SDS011;21083;50.898;4.902;2022-08-18T07:51:55;34.08;;;22.17;;
20653;SDS011;21083;50.898;4.902;2022-08-18T07:54:31;34.10;;;21.85;;
20653;SDS011;21083;50.898;4.902;2022-08-18T07:57:10;39.30;;;23.50;;
20653;SDS011;21083;50.898;4.902;2022-08-18T07:59:48;34.85;;;21.85;;
20653;SDS011;21083;50.898;4.902;2022-08-18T08:02:26;34.13;;;22.58;;
20653;SDS011;21083;50.898;4.902;2022-08-18T08:05:02;33.03;;;20.45;;
20653;SDS011;21083;50.898;4.902;2022-08-18T08:07:36;36.08;;;23.08;;
20653;SDS011;21083;50.898;4.902;2022-08-18T08:10:29;31.40;;;20.05;;
20653;SDS011;21083;50.898;4.902;2022-08-18T08:13:08;30.70;;;20.85;;
20653;SDS011;21083;50.898;4.902;2022-08-18T08:15:46;28.23;;;18.52;;
20653;SDS011;21083;50.898;4.902;2022-08-18T08:18:21;32.88;;;19.05;;
20653;SDS011;21083;50.898;4.902;2022-08-18T08:21:02;28.75;;;17.17;;
20653;SDS011;21083;50.898;4.902;2022-08-18T08:23:36;29.02;;;17.75;;
20653;SDS011;21083;50.898;4.902;2022-08-18T08:26:23;29.42;;;18.30;;
20653;SDS011;21083;50.898;4.902;2022-08-18T08:29:05;30.55;;;19.30;;
20653;SDS011;21083;50.898;4.902;2022-08-18T08:31:41;28.27;;;19.42;;
20653;SDS011;21083;50.898;4.902;2022-08-18T08:34:15;30.17;;;19.25;;
20653;SDS011;21083;50.898;4.902;2022-08-18T08:36:46;40.08;;;20.55;;
20653;SDS011;21083;50.898;4.902;2022-08-18T08:39:16;29.25;;;20.38;;
20653;SDS011;21083;50.898;4.902;2022-08-18T08:41:49;31.33;;;20.48;;
20653;SDS011;21083;50.898;4.902;2022-08-18T08:44:21;28.05;;;18.38;;
20653;SDS011;21083;50.898;4.902;2022-08-18T08:47:00;35.10;;;20.40;;
20653;SDS011;21083;50.898;4.902;2022-08-18T08:49:31;31.02;;;19.65;;
20653;SDS011;21083;50.898;4.902;2022-08-18T08:52:04;27.05;;;19.05;;
20653;SDS011;21083;50.898;4.902;2022-08-18T08:54:38;31.58;;;20.58;;
20653;SDS011;21083;50.898;4.902;2022-08-18T08:57:09;28.90;;;19.77;;
20653;SDS011;21083;50.898;4.902;2022-08-18T08:59:40;35.63;;;23.27;;
20653;SDS011;21083;50.898;4.902;2022-08-18T09:02:19;35.05;;;21.83;;
20653;SDS011;21083;50.898;4.902;2022-08-18T09:04:54;32.25;;;20.65;;
20653;SDS011;21083;50.898;4.902;2022-08-18T09:07:33;29.85;;;18.50;;
20653;SDS011;21083;50.898;4.902;2022-08-18T09:10:21;32.05;;;18.90;;
20653;SDS011;21083;50.898;4.902;2022-08-18T09:13:17;33.92;;;21.60;;
20653;SDS011;21083;50.898;4.902;2022-08-18T09:16:04;29.67;;;18.27;;
20653;SDS011;21083;50.898;4.902;2022-08-18T09:18:43;31.35;;;20.90;;
20653;SDS011;21083;50.898;4.902;2022-08-18T09:21:27;29.00;;;18.88;;
20653;SDS011;21083;50.898;4.902;2022-08-18T09:24:05;33.05;;;19.52;;
20653;SDS011;21083;50.898;4.902;2022-08-18T09:26:41;30.50;;;18.05;;
20653;SDS011;21083;50.898;4.902;2022-08-18T09:29:13;30.67;;;18.23;;
20653;SDS011;21083;50.898;4.902;2022-08-18T09:31:47;29.67;;;18.73;;
20653;SDS011;21083;50.898;4.902;2022-08-18T09:37:11;26.40;;;15.85;;
20653;SDS011;21083;50.898;4.902;2022-08-18T09:39:44;28.25;;;17.23;;
20653;SDS011;21083;50.898;4.902;2022-08-18T09:42:39;29.00;;;16.92;;
20653;SDS011;21083;50.898;4.902;2022-08-18T09:45:38;29.77;;;17.60;;
20653;SDS011;21083;50.898;4.902;2022-08-18T09:48:22;29.50;;;17.05;;
20653;SDS011;21083;50.898;4.902;2022-08-18T09:53:52;29.05;;;18.95;;
20653;SDS011;21083;50.898;4.902;2022-08-18T09:57:04;27.33;;;19.30;;
20653;SDS011;21083;50.898;4.902;2022-08-18T09:59:55;36.72;;;21.73;;
20653;SDS011;21083;50.898;4.902;2022-08-18T10:05:55;29.67;;;20.23;;
20653;SDS011;21083;50.898;4.902;2022-08-18T10:08:42;31.15;;;19.48;;
20653;SDS011;21083;50.898;4.902;2022-08-18T10:11:40;29.98;;;18.60;;
20653;SDS011;21083;50.898;4.902;2022-08-18T10:14:21;29.50;;;18.42;;
20653;SDS011;21083;50.898;4.902;2022-08-18T10:17:00;38.20;;;21.85;;
20653;SDS011;21083;50.898;4.902;2022-08-18T10:19:54;27.02;;;19.08;;
20653;SDS011;21083;50.898;4.902;2022-08-18T10:22:44;31.17;;;18.80;;
20653;SDS011;21083;50.898;4.902;2022-08-18T10:25:13;27.27;;;17.98;;
20653;SDS011;21083;50.898;4.902;2022-08-18T10:27:57;27.13;;;17.73;;
20653;SDS011;21083;50.898;4.902;2022-08-18T10:36:38;29.05;;;17.85;;
20653;SDS011;21083;50.898;4.902;2022-08-18T10:39:12;31.30;;;19.20;;
20653;SDS011;21083;50.898;4.902;2022-08-18T10:44:29;30.98;;;17.85;;
20653;SDS011;21083;50.898;4.902;2022-08-18T10:46:59;22.80;;;15.38;;
20653;SDS011;21083;50.898;4.902;2022-08-18T10:49:29;26.42;;;16.95;;
20653;SDS011;21083;50.898;4.902;2022-08-18T10:52:01;24.00;;;15.93;;
20653;SDS011;21083;50.898;4.902;2022-08-18T10:55:00;24.02;;;16.25;;
20653;SDS011;21083;50.898;4.902;2022-08-18T10:57:46;22.23;;;14.77;;
20653;SDS011;21083;50.898;4.902;2022-08-18T11:00:37;28.25;;;18.05;;
20653;SDS011;21083;50.898;4.902;2022-08-18T11:03:14;22.67;;;15.02;;
20653;SDS011;21083;50.898;4.902;2022-08-18T11:05:47;21.58;;;15.90;;
20653;SDS011;21083;50.898;4.902;2022-08-18T11:08:17;25.50;;;16.35;;
20653;SDS011;21083;50.898;4.902;2022-08-18T11:10:47;21.40;;;15.60;;
20653;SDS011;21083;50.898;4.902;2022-08-18T11:13:17;23.00;;;15.38;;
20653;SDS011;21083;50.898;4.902;2022-08-18T11:15:56;18.45;;;12.98;;
20653;SDS011;21083;50.898;4.902;2022-08-18T11:18:33;24.17;;;15.77;;
20653;SDS011;21083;50.898;4.902;2022-08-18T11:24:01;15.65;;;11.05;;
20653;SDS011;21083;50.898;4.902;2022-08-18T11:26:31;16.70;;;11.40;;
20653;SDS011;21083;50.898;4.902;2022-08-18T11:28:59;18.40;;;10.23;;
20653;SDS011;21083;50.898;4.902;2022-08-18T11:31:26;17.38;;;12.18;;
20653;SDS011;21083;50.898;4.902;2022-08-18T11:33:53;16.20;;;11.88;;
20653;SDS011;21083;50.898;4.902;2022-08-18T11:36:28;17.05;;;11.02;;
20653;SDS011;21083;50.898;4.902;2022-08-18T11:38:55;22.63;;;12.25;;
20653;SDS011;21083;50.898;4.902;2022-08-18T11:41:24;14.40;;;9.52;;
20653;SDS011;21083;50.898;4.902;2022-08-18T11:43:55;16.70;;;10.63;;
20653;SDS011;21083;50.898;4.902;2022-08-18T11:46:27;16.20;;;9.38;;
20653;SDS011;21083;50.898;4.902;2022-08-18T11:48:57;14.00;;;9.15;;
20653;SDS011;21083;50.898;4.902;2022-08-18T11:51:25;14.10;;;7.72;;
20653;SDS011;21083;50.898;4.902;2022-08-18T11:53:54;14.30;;;10.40;;
20653;SDS011;21083;50.898;4.902;2022-08-18T11:56:24;16.70;;;9.55;;
20653;SDS011;21083;50.898;4.902;2022-08-18T11:58:53;12.23;;;8.30;;
20653;SDS011;21083;50.898;4.902;2022-08-18T12:01:33;12.35;;;8.15;;
20653;SDS011;21083;50.898;4.902;2022-08-18T12:04:07;13.35;;;8.68;;
20653;SDS011;21083;50.898;4.902;2022-08-18T12:09:39;12.13;;;8.20;;
20653;SDS011;21083;50.898;4.902;2022-08-18T12:12:13;14.63;;;8.38;;
20653;SDS011;21083;50.898;4.902;2022-08-18T12:14:53;11.38;;;7.60;;
20653;SDS011;21083;50.898;4.902;2022-08-18T12:17:24;12.15;;;7.82;;
20653;SDS011;21083;50.898;4.902;2022-08-18T12:19:51;14.57;;;8.75;;
20653;SDS011;21083;50.898;4.902;2022-08-18T12:22:19;11.27;;;7.10;;
20653;SDS011;21083;50.898;4.902;2022-08-18T12:24:47;11.25;;;7.03;;
20653;SDS011;21083;50.898;4.902;2022-08-18T12:27:16;13.88;;;7.20;;
20653;SDS011;21083;50.898;4.902;2022-08-18T12:29:44;11.45;;;7.35;;
20653;SDS011;21083;50.898;4.902;2022-08-18T12:32:12;11.68;;;7.95;;
20653;SDS011;21083;50.898;4.902;2022-08-18T12:34:40;13.40;;;8.20;;
20653;SDS011;21083;50.898;4.902;2022-08-18T12:37:08;12.00;;;8.00;;
20653;SDS011;21083;50.898;4.902;2022-08-18T12:39:35;14.00;;;8.20;;
20653;SDS011;21083;50.898;4.902;2022-08-18T12:42:03;14.55;;;7.78;;
20653;SDS011;21083;50.898;4.902;2022-08-18T12:44:30;12.23;;;7.95;;
20653;SDS011;21083;50.898;4.902;2022-08-18T12:46:57;12.70;;;7.60;;
20653;SDS011;21083;50.898;4.902;2022-08-18T12:49:27;13.23;;;7.95;;
20653;SDS011;21083;50.898;4.902;2022-08-18T12:51:55;10.93;;;7.38;;
20653;SDS011;21083;50.898;4.902;2022-08-18T12:54:22;13.85;;;7.18;;
20653;SDS011;21083;50.898;4.902;2022-08-18T12:56:50;10.30;;;7.00;;
20653;SDS011;21083;50.898;4.902;2022-08-18T12:59:20;13.15;;;7.88;;
20653;SDS011;21083;50.898;4.902;2022-08-18T13:01:47;10.65;;;7.43;;
20653;SDS011;21083;50.898;4.902;2022-08-18T13:04:14;12.75;;;7.93;;
20653;SDS011;21083;50.898;4.902;2022-08-18T13:06:44;12.43;;;7.75;;
20653;SDS011;21083;50.898;4.902;2022-08-18T13:09:13;10.75;;;6.90;;
20653;SDS011;21083;50.898;4.902;2022-08-18T13:11:41;13.38;;;7.78;;
20653;SDS011;21083;50.898;4.902;2022-08-18T13:14:08;12.48;;;7.10;;
20653;SDS011;21083;50.898;4.902;2022-08-18T13:16:35;15.38;;;7.40;;
20653;SDS011;21083;50.898;4.902;2022-08-18T13:19:04;13.02;;;8.20;;
20653;SDS011;21083;50.898;4.902;2022-08-18T13:21:36;12.48;;;7.72;;
20653;SDS011;21083;50.898;4.902;2022-08-18T13:24:08;13.15;;;7.78;;
20653;SDS011;21083;50.898;4.902;2022-08-18T13:26:36;11.73;;;7.50;;
20653;SDS011;21083;50.898;4.902;2022-08-18T13:29:07;11.80;;;7.53;;
20653;SDS011;21083;50.898;4.902;2022-08-18T13:31:34;14.90;;;7.63;;
20653;SDS011;21083;50.898;4.902;2022-08-18T13:34:02;12.73;;;7.90;;
20653;SDS011;21083;50.898;4.902;2022-08-18T13:36:31;15.13;;;8.02;;
20653;SDS011;21083;50.898;4.902;2022-08-18T13:39:11;13.80;;;6.80;;
20653;SDS011;21083;50.898;4.902;2022-08-18T13:41:38;13.35;;;7.53;;
20653;SDS011;21083;50.898;4.902;2022-08-18T13:44:07;11.23;;;6.82;;
20653;SDS011;21083;50.898;4.902;2022-08-18T13:46:34;14.32;;;7.38;;
20653;SDS011;21083;50.898;4.902;2022-08-18T13:49:10;12.18;;;7.43;;
20653;SDS011;21083;50.898;4.902;2022-08-18T13:51:36;11.65;;;7.25;;
20653;SDS011;21083;50.898;4.902;2022-08-18T13:54:04;11.27;;;6.93;;
20653;SDS011;21083;50.898;4.902;2022-08-18T13:56:32;12.48;;;7.97;;
20653;SDS011;21083;50.898;4.902;2022-08-18T13:59:00;12.13;;;7.78;;
20653;SDS011;21083;50.898;4.902;2022-08-18T14:01:28;11.60;;;6.93;;
20653;SDS011;21083;50.898;4.902;2022-08-18T14:03:56;12.77;;;8.15;;
20653;SDS011;21083;50.898;4.902;2022-08-18T14:06:23;10.23;;;6.65;;
20653;SDS011;21083;50.898;4.902;2022-08-18T14:08:51;10.40;;;6.57;;
20653;SDS011;21083;50.898;4.902;2022-08-18T14:11:19;14.20;;;6.28;;
20653;SDS011;21083;50.898;4.902;2022-08-18T14:13:53;11.75;;;6.53;;
20653;SDS011;21083;50.898;4.902;2022-08-18T14:16:20;13.55;;;6.30;;
20653;SDS011;21083;50.898;4.902;2022-08-18T14:18:48;14.80;;;7.32;;
20653;SDS011;21083;50.898;4.902;2022-08-18T14:21:29;12.65;;;5.85;;
20653;SDS011;21083;50.898;4.902;2022-08-18T14:24:13;10.68;;;6.22;;
20653;SDS011;21083;50.898;4.902;2022-08-18T14:26:57;10.25;;;6.10;;
20653;SDS011;21083;50.898;4.902;2022-08-18T14:29:26;9.98;;;6.32;;
20653;SDS011;21083;50.898;4.902;2022-08-18T14:31:52;10.85;;;6.20;;
20653;SDS011;21083;50.898;4.902;2022-08-18T14:34:19;9.80;;;6.28;;
20653;SDS011;21083;50.898;4.902;2022-08-18T14:36:47;11.50;;;6.35;;
20653;SDS011;21083;50.898;4.902;2022-08-18T14:39:14;12.32;;;6.35;;
20653;SDS011;21083;50.898;4.902;2022-08-18T14:41:41;13.07;;;6.60;;
20653;SDS011;21083;50.898;4.902;2022-08-18T14:44:07;15.35;;;6.68;;
20653;SDS011;21083;50.898;4.902;2022-08-18T14:46:40;12.32;;;6.57;;
20653;SDS011;21083;50.898;4.902;2022-08-18T14:49:11;14.60;;;6.97;;
20653;SDS011;21083;50.898;4.902;2022-08-18T14:51:38;12.15;;;6.45;;
20653;SDS011;21083;50.898;4.902;2022-08-18T14:54:07;11.68;;;6.53;;
20653;SDS011;21083;50.898;4.902;2022-08-18T14:56:35;11.50;;;6.70;;
20653;SDS011;21083;50.898;4.902;2022-08-18T14:59:03;12.60;;;6.32;;
20653;SDS011;21083;50.898;4.902;2022-08-18T15:01:31;13.90;;;6.90;;
20653;SDS011;21083;50.898;4.902;2022-08-18T15:04:00;12.32;;;6.85;;
20653;SDS011;21083;50.898;4.902;2022-08-18T15:06:28;11.02;;;6.05;;
20653;SDS011;21083;50.898;4.902;2022-08-18T15:08:54;14.05;;;6.68;;
20653;SDS011;21083;50.898;4.902;2022-08-18T15:11:22;10.82;;;6.38;;
20653;SDS011;21083;50.898;4.902;2022-08-18T15:13:49;10.60;;;7.03;;
20653;SDS011;21083;50.898;4.902;2022-08-18T15:16:16;10.15;;;6.13;;
20653;SDS011;21083;50.898;4.902;2022-08-18T15:18:44;10.43;;;6.50;;
20653;SDS011;21083;50.898;4.902;2022-08-18T15:21:13;12.60;;;6.72;;
20653;SDS011;21083;50.898;4.902;2022-08-18T15:23:57;10.73;;;6.43;;